Aérodrome :
LOGIN :

S'inscrire | Disclaimer

   EN    FR    IT 

 










Légende :    VFR   VFR Marginal   IFR   IFR Intensif   IFR Très Intensif
Visi : 
Plafond : 
>= 8 km
>= 3000ft
5 à 8 km
1000 à 3000 ft
1500m à 5 km
500 à 1000 ft
800 à 1500m
200 à 500 ft
< 800m
< 200 ft
Symboles :   Orages  Brouillard  Fortes neiges  Fortes précipitations  Vent > 20 kt
SIGMETs :   Divers  Orages  Givrage  Turbulence  Onde Orograph.  Cendres Volcan.







- Altitude de l'aérodrome : 36 ft
- Code IATA : LTQ
- Voir les cartes d'approche


LFAT - Le Touquet

DERNIER METAR :
  • 200600Z AUTO VRB01KT 9999 SCT008 SCT023 BKN047 18/18 Q1008 TEMPO VRB15G25KT 2000 TSRA BKN010 BKN020CB

METARs EXPIRÉS :
  • 200530Z AUTO VRB01KT 9999 FEW003/// SCT024/// OVC058/// ///TCU 18/18 Q1008 TEMPO VRB15G25KT 2000 TSRA BKN010 BKN020CB
  • 200500Z AUTO 16003KT 130V210 9000 SCT004/// BKN009/// BKN030/// ///CB 18/18 Q1008
  • 200430Z AUTO VRB02KT 9999 BKN005/// BKN010/// OVC056/// ///CB 18/18 Q1008
  • 200400Z AUTO VRB02KT 6000 BKN004/// BKN021/// OVC048/// ///CB 18/18 Q1008
  • 200330Z AUTO 28006KT 240V320 3200 R13/1200D +TSRA BR SCT005/// BKN012/// BKN020/// ///CB 19/18 Q1009

TAF TAF LFAT
Valide du 20 à 06h jusqu'au 20 à 15h UTC


200500Z 2006/2015 VRB02KT 9999 BKN020
BECMG 2006/2008 21012KT
TEMPO 2006/2011 4000 RA BKN004
PROB40
TEMPO 2006/2011 VRB15G25KT 2000 TSRA BKN010 BKN020CB
ATIS : +33 3 21 06 62 84
Pas de NOTAMs connus pour ce terrain.
2 SIGMETs publiés pour la FIR Paris (LFFF) :
 
Orages noyés dans la masse
LFFF SIGMET 4 VALID 200600/200800 LFPW
LFFF PARIS FIR/UIR EMBD TS FCST WI N4630 E00315 - N4630 E00300 - N4645 E00230 - N4700 E00245 - N4630 E00315 TOP FL360 MOV E 30KT NC=
Orages noyés dans la masse
LFFF SIGMET 2 VALID 200400/200600 LFPW
LFFF PARIS FIR/UIR EMBD TS OBS AT 0400Z WI N5100 E00145 - N5115 E00200 - N5030 E00330 - N5015 E00100 - N5100 E00145 TOP FL350 MOV E 20KT NC=



MET'MAP, la Météo Aéronautique d'un coup d'oeil ! - Copyright ORBIFLY Décembre 2007 - Disclaimer

ORBIFLY MET'MAP TEAM :

Programmation & Développement : Alexandra Zaïnal
Conception & Développement : Baudouin d'Aumeries
Co-Programmation & Développement : Marc-Olivier Méhu
Soutien technique & logistique : Manuel Goepfert

Contact : metmap@orbifly.com




SOURCES & CREDITS :

   NOAA